Time;durP1;ratioP1;P1;durP2;ratioP2;P2;SDS_P1;SDS_P2;PMS_P1;PMS_P2;Temp;Humidity;BMP_temperature;BMP_pressure;BME280_temperature;BME280_humidity;BME280_pressure;Samples;Min_cycle;Max_cycle;Signal;HPM_P1;HPM_P2
2022/05/17 00:01:33;;;;;;;20.85;9.07;;;19.90;1.00;;;;;;5060494;28;20024;-86
2022/05/17 00:03:59;;;;;;;20.80;9.00;;;19.80;1.00;;;;;;5047168;28;20032;-85
2022/05/17 00:06:26;;;;;;;14.43;8.18;;;19.70;1.00;;;;;;5050108;28;20397;-86
2022/05/17 00:08:52;;;;;;;17.13;8.13;;;19.50;1.00;;;;;;5047032;28;20044;-85
2022/05/17 00:11:18;;;;;;;13.00;7.20;;;19.50;1.00;;;;;;5047771;28;20030;-87
2022/05/17 00:13:45;;;;;;;11.07;6.95;;;19.50;1.00;;;;;;5050394;28;20056;-87
2022/05/17 00:16:11;;;;;;;26.08;10.10;;;19.70;1.00;;;;;;5049239;28;20052;-86
2022/05/17 00:18:37;;;;;;;21.30;8.80;;;19.60;1.00;;;;;;5046207;28;20044;-87
2022/05/17 00:21:04;;;;;;;16.98;8.23;;;19.40;1.00;;;;;;5043880;28;20119;-87
2022/05/17 00:23:30;;;;;;;14.23;7.93;;;19.30;1.00;;;;;;5038716;28;20029;-87
2022/05/17 00:25:56;;;;;;;10.95;7.32;;;19.40;1.00;;;;;;5034389;28;20051;-87
2022/05/17 00:28:23;;;;;;;15.18;7.28;;;19.50;1.00;;;;;;5069241;28;20490;-87
2022/05/17 00:30:50;;;;;;;13.15;7.25;;;19.50;1.00;;;;;;5038339;28;20061;-87
2022/05/17 00:33:16;;;;;;;10.60;7.07;;;19.70;1.00;;;;;;5038833;28;20025;-87
2022/05/17 00:35:45;;;;;;;9.82;7.20;;;19.70;1.00;;;;;;5038868;28;20100;-86
2022/05/17 00:38:11;;;;;;;11.82;7.35;;;19.60;1.00;;;;;;5049932;28;20055;-87
2022/05/17 00:40:36;;;;;;;11.55;7.03;;;19.40;1.00;;;;;;5050092;28;20529;-86
2022/05/17 00:43:02;;;;;;;14.65;7.22;;;19.50;1.00;;;;;;5046601;28;20068;-86
2022/05/17 00:45:28;;;;;;;12.55;7.00;;;19.50;1.00;;;;;;5046274;28;20029;-87
2022/05/17 00:48:04;;;;;;;15.27;7.32;;;19.50;1.00;;;;;;5046591;28;20028;-86
2022/05/17 00:50:42;;;;;;;13.50;7.00;;;19.30;1.00;;;;;;5047411;28;20120;-87
2022/05/17 00:53:13;;;;;;;11.05;6.95;;;19.20;1.00;;;;;;5054251;28;20029;-87
2022/05/17 00:55:42;;;;;;;13.60;7.07;;;19.20;1.00;;;;;;5048949;28;20500;-87
2022/05/17 00:58:14;;;;;;;10.70;6.82;;;19.20;1.00;;;;;;5036785;28;20108;-87
2022/05/17 01:00:49;;;;;;;12.38;7.55;;;19.20;1.00;;;;;;5038191;28;20059;-87
2022/05/17 01:03:17;;;;;;;9.20;6.93;;;19.10;1.00;;;;;;5037312;28;20034;-87
2022/05/17 01:05:46;;;;;;;12.25;7.70;;;19.00;1.00;;;;;;5037685;28;20036;-87
2022/05/17 01:08:14;;;;;;;10.77;6.93;;;18.90;1.00;;;;;;5035491;28;20072;-87
2022/05/17 01:10:40;;;;;;;15.45;7.40;;;19.00;1.00;;;;;;5035246;28;20033;-85
2022/05/17 01:15:51;;;;;;;8.57;6.70;;;19.10;1.00;;;;;;5046250;28;20638;-85
2022/05/17 01:18:17;;;;;;;11.35;7.47;;;19.00;1.00;;;;;;5045755;28;20072;-84
2022/05/17 01:20:43;;;;;;;9.93;7.35;;;19.00;1.00;;;;;;5043524;28;20029;-85
2022/05/17 01:23:09;;;;;;;11.35;7.82;;;19.10;1.00;;;;;;5047992;28;20467;-84
2022/05/17 01:25:35;;;;;;;17.05;7.65;;;19.20;1.00;;;;;;5056340;28;20127;-85
2022/05/17 01:28:11;;;;;;;10.95;7.85;;;19.30;1.00;;;;;;5046434;28;20033;-85
2022/05/17 01:30:37;;;;;;;10.95;7.63;;;19.20;1.00;;;;;;5045799;28;20023;-85
2022/05/17 01:33:04;;;;;;;10.95;7.38;;;19.30;1.00;;;;;;5045401;28;20029;-84
2022/05/17 01:35:29;;;;;;;13.52;7.85;;;19.20;1.00;;;;;;5043886;28;20073;-85
2022/05/17 01:37:56;;;;;;;11.30;7.20;;;19.10;1.00;;;;;;5050280;28;20061;-84
2022/05/17 01:40:23;;;;;;;14.85;7.38;;;18.90;1.00;;;;;;5054946;28;20020;-85
2022/05/17 01:42:49;;;;;;;10.45;7.50;;;18.90;1.00;;;;;;5045404;28;20397;-84
2022/05/17 01:45:15;;;;;;;10.00;7.72;;;18.90;1.00;;;;;;5045220;28;20025;-84
2022/05/17 01:47:41;;;;;;;9.88;7.40;;;19.10;1.00;;;;;;5046646;28;20108;-85
2022/05/17 01:50:07;;;;;;;10.70;7.22;;;19.00;1.00;;;;;;5033974;28;20104;-85
2022/05/17 01:52:33;;;;;;;10.07;7.20;;;18.90;1.00;;;;;;5066453;28;20402;-85
2022/05/17 01:54:59;;;;;;;11.80;7.65;;;18.90;1.00;;;;;;5051876;28;20024;-84
2022/05/17 01:57:24;;;;;;;12.25;6.97;;;18.90;1.00;;;;;;5047865;28;20100;-85
2022/05/17 01:59:50;;;;;;;12.65;7.82;;;18.90;1.00;;;;;;5045269;28;20056;-85
2022/05/17 02:02:15;;;;;;;11.88;7.10;;;18.90;1.00;;;;;;5048937;28;20079;-85
2022/05/17 02:04:42;;;;;;;10.93;7.20;;;18.90;1.00;;;;;;5051199;28;20079;-85
2022/05/17 02:07:08;;;;;;;10.02;7.40;;;18.90;1.00;;;;;;5047094;28;20496;-85
2022/05/17 02:09:33;;;;;;;10.30;7.13;;;18.80;1.00;;;;;;5045739;28;20111;-85
2022/05/17 02:11:59;;;;;;;9.55;7.65;;;19.00;1.00;;;;;;5058464;28;20112;-85
2022/05/17 02:14:25;;;;;;;11.50;7.35;;;19.00;1.00;;;;;;5044942;28;20033;-85
2022/05/17 02:16:51;;;;;;;10.90;7.32;;;19.00;1.00;;;;;;5081280;28;20026;-85
2022/05/17 02:19:19;;;;;;;10.98;7.00;;;18.90;1.00;;;;;;5046980;28;20072;-85
2022/05/17 02:21:46;;;;;;;9.05;6.35;;;18.80;1.00;;;;;;5043910;28;20021;-85
2022/05/17 02:24:12;;;;;;;10.70;6.90;;;19.00;1.00;;;;;;5047250;28;20035;-85
2022/05/17 02:26:38;;;;;;;12.20;7.10;;;18.70;1.00;;;;;;5053635;28;20028;-85
2022/05/17 02:29:03;;;;;;;11.60;7.20;;;18.50;1.00;;;;;;5033180;28;20025;-85
2022/05/17 02:31:30;;;;;;;9.70;6.93;;;18.80;1.00;;;;;;5066685;28;20068;-85
2022/05/17 02:33:55;;;;;;;10.77;7.32;;;18.90;1.00;;;;;;5059307;28;20155;-85
2022/05/17 02:36:21;;;;;;;11.93;7.15;;;18.50;1.00;;;;;;5061557;28;20120;-85
2022/05/17 02:38:47;;;;;;;12.20;7.60;;;18.20;1.00;;;;;;5057370;28;20137;-85
2022/05/17 02:41:13;;;;;;;9.13;7.28;;;18.10;1.00;;;;;;5056402;28;20030;-85
2022/05/17 02:43:39;;;;;;;9.88;6.90;;;18.20;1.00;;;;;;5037890;28;20021;-85
2022/05/17 02:46:05;;;;;;;12.98;7.70;;;18.30;1.00;;;;;;5039593;28;20101;-85
2022/05/17 02:48:30;;;;;;;14.35;7.68;;;18.40;1.00;;;;;;5040304;28;20045;-85
2022/05/17 02:50:56;;;;;;;10.75;7.53;;;18.40;1.00;;;;;;5040115;28;20037;-85
2022/05/17 02:53:22;;;;;;;13.55;7.80;;;18.40;1.00;;;;;;5039626;28;20032;-85
2022/05/17 02:55:47;;;;;;;12.65;7.55;;;18.30;1.00;;;;;;5061642;28;20045;-86
2022/05/17 02:58:13;;;;;;;14.05;7.85;;;18.30;1.00;;;;;;5050390;28;20036;-86
2022/05/17 03:00:39;;;;;;;10.43;7.45;;;18.30;1.00;;;;;;5048511;28;20033;-85
2022/05/17 03:03:04;;;;;;;15.77;7.78;;;18.30;1.00;;;;;;5048455;28;20104;-85
2022/05/17 03:05:30;;;;;;;12.90;7.80;;;18.20;1.00;;;;;;5047059;28;20033;-85
2022/05/17 03:07:55;;;;;;;10.68;7.15;;;18.30;1.00;;;;;;5051013;28;20021;-85
2022/05/17 03:10:21;;;;;;;11.68;6.88;;;18.40;1.00;;;;;;5061769;28;20036;-85
2022/05/17 03:12:47;;;;;;;11.57;6.85;;;18.50;1.00;;;;;;5048885;28;20044;-85
2022/05/17 03:15:18;;;;;;;13.77;6.90;;;18.60;1.00;;;;;;5047849;28;20520;-85
2022/05/17 03:17:43;;;;;;;12.02;7.13;;;18.60;1.00;;;;;;5047918;28;20033;-85
2022/05/17 03:20:10;;;;;;;10.48;6.60;;;18.70;1.00;;;;;;5050751;28;20036;-85
2022/05/17 03:22:36;;;;;;;14.20;7.00;;;18.60;1.00;;;;;;5050583;28;20013;-85
2022/05/17 03:25:03;;;;;;;12.85;6.85;;;18.40;1.00;;;;;;5049680;28;20505;-85
2022/05/17 03:27:29;;;;;;;10.15;7.22;;;18.40;1.00;;;;;;5048021;28;20033;-85
2022/05/17 03:29:54;;;;;;;13.52;7.70;;;18.20;1.00;;;;;;5047872;28;20025;-85
2022/05/17 03:32:20;;;;;;;11.20;7.20;;;17.80;1.00;;;;;;5048786;28;20045;-85
2022/05/17 03:34:46;;;;;;;10.90;7.07;;;17.60;1.00;;;;;;5051092;28;20532;-85
2022/05/17 03:37:12;;;;;;;10.23;7.30;;;17.80;1.00;;;;;;5082029;28;20021;-85
2022/05/17 03:39:38;;;;;;;11.60;7.60;;;17.80;1.00;;;;;;5051949;28;20595;-84
2022/05/17 03:42:04;;;;;;;10.55;7.63;;;17.80;1.00;;;;;;5047668;28;20025;-85
2022/05/17 03:44:30;;;;;;;10.85;7.20;;;17.70;1.00;;;;;;5049958;28;20049;-85
2022/05/17 03:46:55;;;;;;;11.95;7.43;;;17.40;1.00;;;;;;5034847;28;20106;-84
2022/05/17 03:49:21;;;;;;;12.50;7.38;;;17.40;1.00;;;;;;5049823;28;20021;-85
2022/05/17 03:51:47;;;;;;;13.70;7.25;;;17.60;1.00;;;;;;5046863;28;20040;-85
2022/05/17 03:54:18;;;;;;;19.50;7.93;;;17.70;1.00;;;;;;5053480;28;20028;-85
2022/05/17 03:56:45;;;;;;;24.55;8.10;;;17.80;1.00;;;;;;5047504;28;20072;-85
2022/05/17 03:59:10;;;;;;;27.88;8.07;;;18.00;1.00;;;;;;5048414;28;20040;-85
2022/05/17 04:01:36;;;;;;;23.27;8.45;;;17.90;1.00;;;;;;5050060;28;20452;-85
2022/05/17 04:04:01;;;;;;;18.58;7.85;;;18.00;1.00;;;;;;5048672;28;20112;-85
2022/05/17 04:06:27;;;;;;;18.00;8.57;;;17.90;1.00;;;;;;5046552;28;20021;-85
2022/05/17 04:08:52;;;;;;;27.60;8.48;;;17.80;1.00;;;;;;5048712;28;20026;-86
2022/05/17 04:11:18;;;;;;;34.67;9.55;;;17.60;1.00;;;;;;5037800;28;20035;-85
2022/05/17 04:13:44;;;;;;;34.92;9.10;;;17.70;1.00;;;;;;5035756;28;20032;-85
2022/05/17 04:16:10;;;;;;;21.35;8.18;;;17.70;1.00;;;;;;5037959;28;20025;-85
2022/05/17 04:18:36;;;;;;;15.07;7.05;;;17.50;1.00;;;;;;5038614;28;20045;-85
2022/05/17 04:21:03;;;;;;;13.65;7.38;;;17.10;1.00;;;;;;5038562;28;20014;-85
2022/05/17 04:23:29;;;;;;;13.23;6.75;;;16.90;1.00;;;;;;5038421;28;20044;-85
2022/05/17 04:25:56;;;;;;;11.77;7.50;;;17.10;1.00;;;;;;5053275;28;20493;-85
2022/05/17 04:28:21;;;;;;;12.25;7.32;;;17.30;1.00;;;;;;5044385;28;20028;-85
2022/05/17 04:30:47;;;;;;;9.27;7.00;;;17.40;1.00;;;;;;5046772;28;20036;-85
2022/05/17 04:33:13;;;;;;;13.63;7.82;;;17.40;1.00;;;;;;5046243;28;20025;-85
2022/05/17 04:35:40;;;;;;;11.77;7.32;;;17.50;1.00;;;;;;5046076;28;20057;-85
2022/05/17 04:38:07;;;;;;;10.88;7.60;;;17.60;1.00;;;;;;5051175;28;20029;-85
2022/05/17 04:40:33;;;;;;;10.10;7.55;;;17.80;1.00;;;;;;5036091;28;20026;-85
2022/05/17 04:42:59;;;;;;;14.32;8.13;;;17.80;1.00;;;;;;5038306;28;20095;-85
2022/05/17 04:45:24;;;;;;;10.57;7.65;;;18.00;1.00;;;;;;5054848;28;20072;-85
2022/05/17 04:47:50;;;;;;;11.60;7.53;;;18.00;1.00;;;;;;5038054;28;20052;-85
2022/05/17 04:50:17;;;;;;;11.23;7.20;;;18.20;1.00;;;;;;5035959;28;20025;-85
2022/05/17 04:52:43;;;;;;;18.35;7.50;;;18.10;1.00;;;;;;5036479;28;20033;-85
2022/05/17 04:55:10;;;;;;;15.73;8.30;;;18.20;1.00;;;;;;5060013;28;20028;-85
2022/05/17 04:57:37;;;;;;;11.23;7.82;;;18.20;1.00;;;;;;5047543;28;20127;-85
2022/05/17 05:00:09;;;;;;;12.68;8.07;;;18.10;1.00;;;;;;5045969;28;20091;-85
2022/05/17 05:02:35;;;;;;;11.90;7.65;;;18.30;1.00;;;;;;5047965;28;20558;-85
2022/05/17 05:05:01;;;;;;;10.52;7.65;;;18.30;1.00;;;;;;5033438;28;20029;-85
2022/05/17 05:07:27;;;;;;;12.05;7.75;;;18.40;1.00;;;;;;5036091;28;20030;-85
2022/05/17 05:09:53;;;;;;;14.00;7.60;;;18.40;1.00;;;;;;5038960;28;20099;-85
2022/05/17 05:12:18;;;;;;;11.68;7.50;;;18.50;1.00;;;;;;5037898;28;20029;-85
2022/05/17 05:14:44;;;;;;;11.85;7.60;;;18.60;1.00;;;;;;5037675;28;20513;-85
2022/05/17 05:17:10;;;;;;;13.07;7.10;;;18.70;1.00;;;;;;5035094;28;20541;-85
2022/05/17 05:19:36;;;;;;;11.68;7.60;;;18.80;1.00;;;;;;5034053;28;20033;-85
2022/05/17 05:22:02;;;;;;;15.88;7.72;;;18.70;1.00;;;;;;5038637;28;20025;-85
2022/05/17 05:24:29;;;;;;;11.40;7.93;;;18.60;1.00;;;;;;5040848;28;20033;-85
2022/05/17 05:26:55;;;;;;;15.93;7.63;;;18.40;1.00;;;;;;5045436;28;20021;-85
2022/05/17 05:29:20;;;;;;;12.23;7.70;;;18.50;1.00;;;;;;5046753;28;20029;-85
2022/05/17 05:31:46;;;;;;;25.33;8.65;;;18.70;1.00;;;;;;5049033;28;20033;-85
2022/05/17 05:34:11;;;;;;;23.02;8.10;;;18.70;1.00;;;;;;5046935;28;20049;-85
2022/05/17 05:36:37;;;;;;;25.45;8.70;;;18.70;1.00;;;;;;5046079;28;20040;-85
2022/05/17 05:39:03;;;;;;;28.83;10.60;;;18.70;1.00;;;;;;5044647;28;20052;-85
2022/05/17 05:41:29;;;;;;;18.50;7.97;;;18.80;1.00;;;;;;5037163;28;20024;-85
2022/05/17 05:43:54;;;;;;;16.25;6.82;;;18.90;1.00;;;;;;5034081;28;20033;-86
2022/05/17 05:46:20;;;;;;;13.45;6.97;;;19.00;1.00;;;;;;5047384;28;20029;-85
2022/05/17 05:48:46;;;;;;;20.25;8.23;;;18.90;1.00;;;;;;5044977;28;20444;-85
2022/05/17 05:51:12;;;;;;;51.58;10.35;;;18.70;1.00;;;;;;5041810;28;20086;-84
2022/05/17 05:53:38;;;;;;;50.72;10.52;;;18.80;1.00;;;;;;5046021;28;20033;-88
2022/05/17 05:56:05;;;;;;;47.75;9.95;;;19.00;99.90;;;;;;5048241;28;20029;-87
2022/05/17 05:58:36;;;;;;;46.33;11.00;;;19.30;99.90;;;;;;5035160;28;20029;-84
2022/05/17 06:01:02;;;;;;;36.88;9.20;;;19.40;99.90;;;;;;5046614;28;20025;-84
2022/05/17 06:03:28;;;;;;;80.38;12.77;;;19.40;99.90;;;;;;5044747;28;20048;-84
2022/05/17 06:05:54;;;;;;;48.92;10.85;;;19.60;99.90;;;;;;5045614;28;20032;-84
2022/05/17 06:08:21;;;;;;;54.45;11.63;;;19.60;99.90;;;;;;5045905;28;20063;-84
2022/05/17 06:10:47;;;;;;;61.60;10.68;;;19.70;99.90;;;;;;5048510;28;20033;-84
2022/05/17 06:13:16;;;;;;;57.95;13.00;;;19.90;99.90;;;;;;5047094;28;20024;-84
2022/05/17 06:15:43;;;;;;;49.70;10.50;;;19.90;99.90;;;;;;5044954;28;20033;-84
2022/05/17 06:18:10;;;;;;;69.72;13.15;;;19.90;99.90;;;;;;5044790;28;20524;-85
2022/05/17 06:20:37;;;;;;;51.95;11.18;;;19.80;99.90;;;;;;5049836;28;20448;-84
2022/05/17 06:23:03;;;;;;;31.80;9.05;;;19.80;99.90;;;;;;5033234;28;20030;-84
2022/05/17 06:25:29;;;;;;;50.80;11.43;;;19.90;99.90;;;;;;5052490;28;20032;-84
2022/05/17 06:27:55;;;;;;;36.85;9.07;;;19.90;99.90;;;;;;5045655;28;20538;-84
2022/05/17 06:30:20;;;;;;;24.08;8.70;;;20.00;99.90;;;;;;5045316;28;20021;-85
2022/05/17 06:32:46;;;;;;;29.70;8.90;;;19.90;99.90;;;;;;5044668;28;20433;-84
2022/05/17 06:35:13;;;;;;;29.65;9.05;;;20.10;99.90;;;;;;5047047;28;20528;-84
2022/05/17 06:37:39;;;;;;;29.42;9.13;;;20.20;99.90;;;;;;5059641;28;20043;-85
2022/05/17 06:40:06;;;;;;;27.27;9.23;;;20.30;99.90;;;;;;5046800;28;20036;-84
2022/05/17 06:42:32;;;;;;;25.00;8.68;;;20.40;99.90;;;;;;5044767;28;20029;-84
2022/05/17 06:44:58;;;;;;;35.55;8.80;;;20.60;99.90;;;;;;5044601;28;20393;-84
2022/05/17 06:47:24;;;;;;;22.40;8.20;;;20.60;99.90;;;;;;5053427;28;20403;-84
2022/05/17 06:49:50;;;;;;;60.38;11.50;;;20.60;99.90;;;;;;5053730;28;20136;-85
2022/05/17 06:52:16;;;;;;;38.28;8.88;;;20.80;99.90;;;;;;5046836;28;20104;-83
2022/05/17 06:54:43;;;;;;;42.08;8.32;;;20.70;99.90;;;;;;5045134;28;20024;-84
2022/05/17 06:57:11;;;;;;;46.35;9.77;;;20.80;99.90;;;;;;5044711;28;20107;-84
2022/05/17 06:59:38;;;;;;;23.65;6.85;;;20.90;99.90;;;;;;5054118;28;20112;-84
2022/05/17 07:02:05;;;;;;;28.05;7.13;;;20.90;99.90;;;;;;5032580;28;20025;-84
2022/05/17 07:04:31;;;;;;;44.60;9.13;;;20.90;99.90;;;;;;5038111;28;20087;-84
2022/05/17 07:06:58;;;;;;;23.35;7.53;;;21.00;99.90;;;;;;5039099;28;20037;-84
2022/05/17 07:09:24;;;;;;;31.30;8.45;;;21.10;99.90;;;;;;5036473;28;20048;-84
2022/05/17 07:14:38;;;;;;;28.65;8.77;;;21.30;99.90;;;;;;5044457;28;20509;-84
2022/05/17 07:17:15;;;;;;;29.70;9.18;;;21.30;99.90;;;;;;5048352;28;20045;-84
2022/05/17 07:19:42;;;;;;;14.57;7.43;;;21.50;99.90;;;;;;5047727;28;20045;-84
2022/05/17 07:22:08;;;;;;;21.80;7.82;;;21.50;99.90;;;;;;5050440;28;20025;-84
2022/05/17 07:24:36;;;;;;;21.15;7.72;;;21.60;99.90;;;;;;5048228;28;20036;-85
2022/05/17 07:27:03;;;;;;;24.00;6.93;;;21.40;99.90;;;;;;5046722;28;20024;-84
2022/05/17 07:29:29;;;;;;;18.55;7.50;;;21.50;99.90;;;;;;5048179;28;20034;-84
2022/05/17 07:31:55;;;;;;;19.30;6.85;;;21.50;99.90;;;;;;5052471;28;20028;-84
2022/05/17 07:34:21;;;;;;;20.77;7.20;;;21.50;99.90;;;;;;5049707;28;20048;-84
2022/05/17 07:36:47;;;;;;;14.60;6.70;;;21.70;99.90;;;;;;5046822;28;20485;-84
2022/05/17 07:39:13;;;;;;;15.00;6.28;;;21.80;99.90;;;;;;5045112;28;20039;-84
2022/05/17 07:41:40;;;;;;;9.82;5.85;;;21.80;99.90;;;;;;5039500;28;20516;-84
2022/05/17 07:44:07;;;;;;;12.57;6.25;;;21.80;99.90;;;;;;5036203;28;20079;-85
2022/05/17 07:46:33;;;;;;;13.63;5.90;;;21.90;99.90;;;;;;5051992;28;20056;-84
2022/05/17 07:48:59;;;;;;;12.82;6.10;;;21.90;99.90;;;;;;5048722;28;20025;-84
2022/05/17 07:51:25;;;;;;;11.65;6.38;;;22.10;99.90;;;;;;5047666;28;20028;-84
2022/05/17 07:53:51;;;;;;;15.27;5.70;;;22.30;99.90;;;;;;5047873;28;20106;-84
2022/05/17 07:56:17;;;;;;;11.00;5.30;;;22.20;99.90;;;;;;5049526;28;20040;-84
2022/05/17 07:58:43;;;;;;;13.88;5.57;;;22.20;99.90;;;;;;5050012;28;20041;-84
2022/05/17 08:01:08;;;;;;;23.55;6.57;;;22.30;99.90;;;;;;5054407;28;20029;-84
2022/05/17 08:03:35;;;;;;;10.50;5.80;;;22.40;99.90;;;;;;5049863;28;20088;-84
2022/05/17 08:06:01;;;;;;;14.32;5.50;;;22.40;99.90;;;;;;5047423;28;20036;-84
2022/05/17 08:08:26;;;;;;;10.98;5.22;;;22.50;99.90;;;;;;5047812;28;20037;-83
2022/05/17 08:10:53;;;;;;;14.85;6.10;;;22.60;99.90;;;;;;5049645;28;20083;-85
2022/05/17 08:13:20;;;;;;;14.52;5.72;;;22.60;99.90;;;;;;5038445;28;20363;-84
2022/05/17 08:15:46;;;;;;;12.40;5.70;;;22.70;99.90;;;;;;5038839;28;20116;-85
2022/05/17 08:18:12;;;;;;;9.77;5.50;;;22.80;99.90;;;;;;5042519;28;20149;-84
2022/05/17 08:20:38;;;;;;;9.45;5.40;;;22.90;99.90;;;;;;5056647;28;20029;-84
2022/05/17 08:23:05;;;;;;;19.10;6.18;;;23.00;99.90;;;;;;5035530;28;20029;-84
2022/05/17 08:28:15;;;;;;;24.67;6.63;;;23.00;99.90;;;;;;5039061;28;20449;-84
2022/05/17 08:30:42;;;;;;;9.45;5.57;;;23.10;99.90;;;;;;5038734;28;20033;-84
2022/05/17 08:33:17;;;;;;;16.17;5.63;;;23.10;99.90;;;;;;5038121;28;20494;-84
2022/05/17 08:36:01;;;;;;;17.70;5.47;;;23.20;99.90;;;;;;5038337;28;20041;-84
2022/05/17 08:38:48;;;;;;;12.63;6.15;;;23.30;99.90;;;;;;5038350;28;20025;-84
2022/05/17 08:41:29;;;;;;;14.00;6.22;;;23.40;99.90;;;;;;5035585;28;20087;-85
2022/05/17 08:44:02;;;;;;;13.30;6.63;;;23.60;99.90;;;;;;5051562;28;20053;-85
2022/05/17 08:46:49;;;;;;;14.18;6.47;;;23.60;99.90;;;;;;5049010;28;20032;-84
2022/05/17 08:49:27;;;;;;;12.75;6.22;;;23.60;99.90;;;;;;5037621;28;20087;-84
2022/05/17 08:52:27;;;;;;;10.82;5.68;;;23.70;99.90;;;;;;5051811;28;20029;-84
2022/05/17 08:54:55;;;;;;;10.30;6.20;;;23.90;99.90;;;;;;5018905;28;20038;-85
2022/05/17 08:57:42;;;;;;;12.05;5.50;;;23.90;99.90;;;;;;5026169;28;20040;-84
2022/05/17 09:00:25;;;;;;;15.30;5.80;;;23.90;99.90;;;;;;5028775;28;20037;-86
2022/05/17 09:03:01;;;;;;;13.15;6.35;;;23.90;99.90;;;;;;5030032;28;20225;-87
2022/05/17 09:05:46;;;;;;;18.05;5.93;;;24.20;99.90;;;;;;5030256;28;20098;-86
2022/05/17 09:08:25;;;;;;;10.15;5.55;;;24.30;99.90;;;;;;5016652;28;20052;-86
2022/05/17 09:10:58;;;;;;;14.13;6.07;;;24.40;99.90;;;;;;5037857;28;20030;-86
2022/05/17 09:13:43;;;;;;;14.15;5.95;;;24.40;99.90;;;;;;5026835;28;20065;-86
2022/05/17 09:16:10;;;;;;;11.82;5.65;;;24.50;99.90;;;;;;4977572;28;20039;-85
2022/05/17 09:18:39;;;;;;;16.42;6.05;;;24.70;99.90;;;;;;4979644;28;20134;-85
2022/05/17 09:21:05;;;;;;;9.70;5.43;;;24.70;99.90;;;;;;4979306;28;20035;-85
2022/05/17 09:23:30;;;;;;;11.57;5.82;;;24.80;99.90;;;;;;4978753;28;20050;-85
2022/05/17 09:26:00;;;;;;;10.70;5.43;;;25.00;99.90;;;;;;4977972;28;20434;-85
2022/05/17 09:28:47;;;;;;;12.18;5.70;;;25.00;99.90;;;;;;4975144;28;20065;-85
2022/05/17 09:31:27;;;;;;;10.73;5.60;;;25.00;99.90;;;;;;5002117;28;20112;-85
2022/05/17 09:33:53;;;;;;;10.55;5.78;;;25.00;99.90;;;;;;5005203;28;20486;-85
2022/05/17 09:36:22;;;;;;;16.55;6.68;;;25.10;99.90;;;;;;5004152;28;20053;-85
2022/05/17 09:38:50;;;;;;;8.75;5.63;;;25.00;99.90;;;;;;5004201;28;20050;-85
2022/05/17 09:41:26;;;;;;;9.27;5.47;;;25.20;99.90;;;;;;4994464;28;20042;-85
2022/05/17 09:44:09;;;;;;;12.32;5.28;;;25.40;99.90;;;;;;4991350;28;20030;-85
2022/05/17 09:46:41;;;;;;;9.07;4.63;;;25.50;99.90;;;;;;4998125;28;20034;-85
2022/05/17 09:54:53;;;;;;;11.18;5.10;;;26.00;99.90;;;;;;5040780;28;20543;-85
2022/05/17 09:57:19;;;;;;;8.10;4.78;;;26.20;99.90;;;;;;5049334;28;20025;-85
2022/05/17 09:59:46;;;;;;;13.00;5.38;;;26.10;99.90;;;;;;5045858;28;20040;-85
2022/05/17 10:02:34;;;;;;;8.60;4.57;;;26.20;99.90;;;;;;5035178;28;20018;-85
2022/05/17 10:05:16;;;;;;;9.07;4.63;;;26.10;99.90;;;;;;5034609;28;20041;-85
2022/05/17 10:07:47;;;;;;;6.00;4.90;;;26.30;99.90;;;;;;5048652;28;20493;-85
2022/05/17 10:10:27;;;;;;;10.02;5.28;;;26.40;99.90;;;;;;5045840;28;20371;-85
2022/05/17 10:13:15;;;;;;;9.65;4.72;;;26.30;99.90;;;;;;5047592;28;20492;-85
2022/05/17 10:15:44;;;;;;;8.80;5.03;;;26.20;99.90;;;;;;5043802;28;20033;-85
2022/05/17 10:18:29;;;;;;;7.78;4.40;;;26.40;99.90;;;;;;5042311;28;20494;-85
2022/05/17 10:21:02;;;;;;;8.65;4.82;;;26.60;99.90;;;;;;5036894;28;20109;-85
2022/05/17 10:23:34;;;;;;;7.47;4.53;;;26.70;99.90;;;;;;5068608;28;20461;-85
2022/05/17 10:26:09;;;;;;;6.75;4.60;;;26.70;99.90;;;;;;5050872;28;20040;-85
2022/05/17 10:28:52;;;;;;;11.38;4.40;;;26.70;99.90;;;;;;5047874;28;20029;-85
2022/05/17 10:31:18;;;;;;;10.45;5.30;;;26.90;99.90;;;;;;5036052;28;20032;-85
2022/05/17 10:34:13;;;;;;;10.05;4.68;;;27.00;99.90;;;;;;5036515;28;20116;-85
2022/05/17 10:36:41;;;;;;;6.55;4.93;;;26.60;99.90;;;;;;5026887;28;20140;-85
2022/05/17 10:39:39;;;;;;;12.15;4.60;;;26.80;99.90;;;;;;5023920;28;20045;-85
2022/05/17 10:42:06;;;;;;;6.07;4.65;;;27.10;99.90;;;;;;5028943;28;20041;-85
2022/05/17 10:44:50;;;;;;;7.93;3.92;;;27.20;99.90;;;;;;5028258;28;20029;-85
2022/05/17 10:47:46;;;;;;;7.15;3.92;;;27.10;99.90;;;;;;5017013;28;20430;-86
2022/05/17 10:50:20;;;;;;;8.35;4.10;;;27.20;99.90;;;;;;5028771;28;20102;-85
2022/05/17 10:53:04;;;;;;;9.93;4.13;;;27.20;99.90;;;;;;5028372;28;20547;-85
2022/05/17 10:55:41;;;;;;;6.10;3.90;;;27.30;99.90;;;;;;5026461;28;20033;-85
2022/05/17 10:58:16;;;;;;;10.05;4.68;;;27.20;99.90;;;;;;5032130;28;20041;-85
2022/05/17 11:00:47;;;;;;;8.88;4.63;;;27.30;99.90;;;;;;5022351;28;20076;-85
2022/05/17 11:03:42;;;;;;;16.70;5.20;;;27.40;99.90;;;;;;5021602;28;20048;-86
2022/05/17 11:06:13;;;;;;;10.77;5.00;;;27.40;99.90;;;;;;5021647;28;20521;-85
2022/05/17 11:08:52;;;;;;;8.80;4.50;;;27.60;99.90;;;;;;5021011;28;20037;-85
2022/05/17 11:11:21;;;;;;;10.70;4.85;;;27.40;99.90;;;;;;5024347;28;20032;-85
2022/05/17 11:13:52;;;;;;;7.55;4.60;;;27.60;99.90;;;;;;5043153;28;20103;-85
2022/05/17 11:17:00;;;;;;;13.60;4.55;;;27.70;99.90;;;;;;5050340;28;20481;-85
2022/05/17 11:19:47;;;;;;;10.20;4.75;;;27.70;99.90;;;;;;5032567;28;20057;-85
2022/05/17 11:22:42;;;;;;;7.05;4.38;;;27.80;99.90;;;;;;5046595;28;20056;-85
2022/05/17 11:25:36;;;;;;;11.65;4.75;;;27.90;99.90;;;;;;5057765;28;20086;-85
2022/05/17 11:28:19;;;;;;;9.85;4.80;;;27.80;99.90;;;;;;5047174;28;20393;-85
2022/05/17 11:30:49;;;;;;;9.15;4.25;;;27.90;99.90;;;;;;5054895;28;20033;-86
2022/05/17 11:33:24;;;;;;;7.72;4.20;;;27.90;99.90;;;;;;5037378;28;20091;-85
2022/05/17 11:35:56;;;;;;;7.20;4.47;;;28.00;99.90;;;;;;5023662;28;20033;-86
2022/05/17 11:38:37;;;;;;;8.85;4.78;;;28.20;99.90;;;;;;5007124;28;20034;-85
2022/05/17 11:41:32;;;;;;;9.50;4.40;;;28.40;99.90;;;;;;5027318;28;20088;-85
2022/05/17 11:44:05;;;;;;;8.70;4.43;;;28.30;99.90;;;;;;4995604;28;20027;-85
2022/05/17 11:46:31;;;;;;;8.30;4.60;;;28.30;99.90;;;;;;5007490;28;20046;-85
2022/05/17 11:49:11;;;;;;;9.25;4.30;;;28.50;99.90;;;;;;5010307;28;20038;-85
2022/05/17 11:51:40;;;;;;;8.57;4.32;;;29.00;99.90;;;;;;5005787;28;20041;-85
2022/05/17 11:54:10;;;;;;;9.75;4.78;;;29.20;99.90;;;;;;5008021;28;20029;-85
2022/05/17 11:56:38;;;;;;;9.05;4.10;;;29.70;99.90;;;;;;5008010;28;20458;-85
2022/05/17 11:59:12;;;;;;;10.18;4.47;;;29.80;99.90;;;;;;5011483;28;20058;-85
2022/05/17 12:01:37;;;;;;;7.68;4.00;;;30.00;99.90;;;;;;5010828;28;20483;-85
2022/05/17 12:04:42;;;;;;;8.48;4.55;;;30.30;99.90;;;;;;5016457;28;20034;-85
2022/05/17 12:07:22;;;;;;;6.80;4.00;;;30.70;99.90;;;;;;4994778;28;20574;-85
2022/05/17 12:09:51;;;;;;;10.82;4.55;;;31.20;99.90;;;;;;5007787;28;20037;-85
2022/05/17 12:12:20;;;;;;;7.95;4.20;;;31.50;99.90;;;;;;5004162;28;20026;-86
2022/05/17 12:15:14;;;;;;;6.63;3.90;;;32.10;99.90;;;;;;4999466;28;20049;-86
2022/05/17 12:17:46;;;;;;;7.22;4.35;;;32.20;99.90;;;;;;5000301;28;20494;-85
2022/05/17 12:20:47;;;;;;;10.50;3.58;;;32.10;99.90;;;;;;4996842;28;20386;-85
2022/05/17 12:23:20;;;;;;;9.18;4.40;;;32.10;99.90;;;;;;5009759;28;20520;-86
2022/05/17 12:25:59;;;;;;;11.50;4.45;;;31.90;99.90;;;;;;5010929;28;20169;-86
2022/05/17 12:28:46;;;;;;;8.68;4.43;;;32.70;99.90;;;;;;5010116;28;20113;-85
2022/05/17 12:31:19;;;;;;;6.28;4.00;;;32.90;99.90;;;;;;4999868;28;20037;-85
2022/05/17 12:33:47;;;;;;;5.85;4.28;;;32.90;99.90;;;;;;5011621;28;20044;-86
2022/05/17 12:36:24;;;;;;;7.38;3.67;;;33.20;99.90;;;;;;5047235;28;20409;-85
2022/05/17 12:44:53;;;;;;;12.38;4.25;;;34.60;99.90;;;;;;5047057;28;20102;-86
2022/05/17 12:47:23;;;;;;;8.73;3.83;;;34.60;99.90;;;;;;5045985;28;20116;-86
2022/05/17 12:49:57;;;;;;;5.88;3.58;;;34.60;99.90;;;;;;5049871;28;20473;-86
2022/05/17 12:52:32;;;;;;;7.35;4.00;;;34.80;99.90;;;;;;5048686;28;20032;-86
2022/05/17 12:55:11;;;;;;;7.32;4.32;;;34.40;99.90;;;;;;5038405;28;20117;-85
2022/05/17 12:57:39;;;;;;;6.82;3.67;;;35.00;99.90;;;;;;5038564;28;20029;-86
2022/05/17 13:00:23;;;;;;;8.25;3.45;;;35.20;99.90;;;;;;5038163;28;20041;-86
2022/05/17 13:03:02;;;;;;;11.60;4.25;;;34.80;99.90;;;;;;5042346;28;20030;-86
2022/05/17 13:05:43;;;;;;;10.23;4.07;;;34.90;99.90;;;;;;5058159;28;20105;-86
2022/05/17 13:08:17;;;;;;;9.10;4.03;;;34.80;99.90;;;;;;5035188;28;20048;-86
2022/05/17 13:11:05;;;;;;;6.15;3.97;;;34.70;99.90;;;;;;5049726;28;20436;-86
2022/05/17 13:13:34;;;;;;;8.45;3.90;;;34.40;99.90;;;;;;5049220;28;20028;-86
2022/05/17 13:16:25;;;;;;;14.43;4.72;;;34.20;99.90;;;;;;5047254;28;20025;-86
2022/05/17 13:18:51;;;;;;;9.95;4.18;;;33.90;99.90;;;;;;5045075;28;20041;-85